TimeWET,TemperatureF,Dew PointF,Humidity,Sea Level PressureIn,VisibilityMPH,Wind Direction,Wind SpeedMPH,Gust SpeedMPH,PrecipitationIn,Events,Conditions,WindDirDegrees,DateUTC
12:00 AM,63,41,32,,12,West,9.2,,,,Scattered Clouds,260,2012-10-27 00:00:00
12:00 AM,62.6,41.0,45,29.89,6.2,West,9.2,-,N/A,,Partly Cloudy,260,2012-10-27 00:00:00
6:00 AM,61,39,32,,12,WSW,6.9,,,,Scattered Clouds,240,2012-10-27 06:00:00
6:00 AM,60.8,39.2,45,29.86,6.2,WSW,6.9,-,N/A,,Partly Cloudy,240,2012-10-27 06:00:00
7:00 AM,60.8,41.0,48,29.89,6.2,West,5.8,-,N/A,,Partly Cloudy,280,2012-10-27 07:00:00
8:00 AM,64.4,39.2,40,29.89,6.2,WNW,4.6,-,N/A,,Partly Cloudy,300,2012-10-27 08:00:00
9:00 AM,65,41,30,,12,SE,3.5,,,,Scattered Clouds,140,2012-10-27 09:00:00
9:00 AM,66.2,41.0,40,29.92,6.2,SE,3.5,-,N/A,,Mostly Cloudy,140,2012-10-27 09:00:00
10:00 AM,66.2,41.0,40,29.89,6.2,ENE,2.3,-,N/A,,Mostly Cloudy,60,2012-10-27 10:00:00
11:00 AM,68.0,39.2,35,29.89,6.2,North,1.2,-,N/A,,Mostly Cloudy,10,2012-10-27 11:00:00
12:00 PM,69,39,22,,12,North,4.6,,,,Scattered Clouds,350,2012-10-27 12:00:00
12:00 PM,69.8,39.2,33,29.89,6.2,North,4.6,16.1,N/A,,Mostly Cloudy,350,2012-10-27 12:00:00
1:00 PM,69.8,39.2,33,29.86,6.2,ESE,3.5,-,N/A,,Mostly Cloudy,110,2012-10-27 13:00:00
2:00 PM,69.8,37.4,31,29.86,6.2,ESE,2.3,-,N/A,,Mostly Cloudy,110,2012-10-27 14:00:00
3:00 PM,71.6,35.6,27,29.86,6.2,NNW,6.9,-,N/A,,Mostly Cloudy,330,2012-10-27 15:00:00
4:00 PM,71.6,33.8,25,29.86,6.2,NW,15.0,-,N/A,,Partly Cloudy,320,2012-10-27 16:00:00
5:00 PM,69.8,32.0,25,29.86,6.2,WNW,24.2,-,N/A,,Partly Cloudy,300,2012-10-27 17:00:00
6:00 PM,67,32,17,,12,WNW,20.7,,,,Scattered Clouds,300,2012-10-27 18:00:00
6:00 PM,66.2,32.0,28,29.86,6.2,WNW,20.7,-,N/A,,Partly Cloudy,300,2012-10-27 18:00:00
7:00 PM,64.4,35.6,34,29.89,6.2,WNW,19.6,-,N/A,,Partly Cloudy,290,2012-10-27 19:00:00
8:00 PM,62.6,39.2,42,29.89,6.2,WNW,19.6,-,N/A,,Partly Cloudy,290,2012-10-27 20:00:00
9:00 PM,62,35,24,,12,WNW,24.2,,,,Scattered Clouds,300,2012-10-27 21:00:00
9:00 PM,62.6,35.6,37,29.92,6.2,WNW,24.2,-,N/A,,Partly Cloudy,300,2012-10-27 21:00:00
10:00 PM,60.8,35.6,39,29.92,6.2,WNW,19.6,-,N/A,,Partly Cloudy,300,2012-10-27 22:00:00
11:00 PM,60.8,35.6,39,29.95,6.2,WNW,16.1,-,N/A,,Partly Cloudy,300,2012-10-27 23:00:00